Time;durP1;ratioP1;P1;durP2;ratioP2;P2;SDS_P1;SDS_P2;PMS_P1;PMS_P2;Temp;Humidity;BMP_temperature;BMP_pressure;BME280_temperature;BME280_humidity;BME280_pressure;Samples;Min_cycle;Max_cycle;Signal;HPM_P1;HPM_P2
2022/09/10 00:01:33;;;;;;;0.88;0.70;;;23.50;87.60;;;;;;5064144;28;45307;-75
2022/09/10 00:04:01;;;;;;;0.65;0.30;;;23.60;87.80;;;;;;5068175;28;45274;-75
2022/09/10 00:06:31;;;;;;;0.82;0.50;;;23.50;87.80;;;;;;5068298;28;45387;-75
2022/09/10 00:09:01;;;;;;;0.90;0.40;;;23.50;88.70;;;;;;5067683;28;45651;-75
2022/09/10 00:11:29;;;;;;;1.00;0.45;;;23.50;87.60;;;;;;5051208;28;45428;-75
2022/09/10 00:13:56;;;;;;;0.98;0.40;;;23.50;87.70;;;;;;5055108;28;45257;-75
2022/09/10 00:16:26;;;;;;;0.75;0.40;;;23.50;87.70;;;;;;5071935;28;45258;-74
2022/09/10 00:18:53;;;;;;;1.08;0.50;;;23.50;87.60;;;;;;5054172;28;45450;-75
2022/09/10 00:21:21;;;;;;;0.80;0.30;;;23.50;87.70;;;;;;5058894;28;45196;-74
2022/09/10 00:23:48;;;;;;;0.63;0.38;;;23.50;87.60;;;;;;5067915;28;45485;-75
2022/09/10 00:26:19;;;;;;;0.47;0.30;;;23.50;87.80;;;;;;5067902;28;45237;-75
2022/09/10 00:28:46;;;;;;;0.95;0.30;;;23.50;87.60;;;;;;5067974;28;45647;-75
2022/09/10 00:31:13;;;;;;;0.60;0.20;;;23.50;87.60;;;;;;5067603;28;45267;-75
2022/09/10 00:33:41;;;;;;;1.42;0.38;;;23.50;87.60;;;;;;5067640;28;45316;-75
2022/09/10 00:36:14;;;;;;;0.50;0.20;;;23.50;87.50;;;;;;5067952;28;45265;-75
2022/09/10 00:38:41;;;;;;;0.70;0.35;;;23.50;87.40;;;;;;5067873;28;45218;-75
2022/09/10 00:41:08;;;;;;;0.57;0.28;;;23.50;87.40;;;;;;5058373;28;45352;-75
2022/09/10 00:43:50;;;;;;;0.30;0.20;;;23.50;87.40;;;;;;5047689;28;45439;-75
2022/09/10 00:46:24;;;;;;;0.55;0.30;;;23.50;87.70;;;;;;5050694;28;45455;-75
2022/09/10 00:48:54;;;;;;;0.95;0.43;;;23.50;87.60;;;;;;5067101;28;48336;-75
2022/09/10 00:51:22;;;;;;;1.15;0.30;;;23.50;87.60;;;;;;5067670;28;45569;-75
2022/09/10 00:53:50;;;;;;;0.85;0.40;;;23.50;87.60;;;;;;5067386;28;45384;-75
2022/09/10 00:56:17;;;;;;;1.02;0.43;;;23.50;87.80;;;;;;5050936;28;45155;-75
2022/09/10 00:58:44;;;;;;;1.17;0.28;;;23.50;87.60;;;;;;5067399;28;46482;-75
2022/09/10 01:01:18;;;;;;;0.30;0.30;;;23.50;87.70;;;;;;5067007;28;45254;-75
2022/09/10 01:03:46;;;;;;;3.75;0.40;;;23.50;87.50;;;;;;5067540;28;45404;-75
2022/09/10 01:06:14;;;;;;;0.43;0.17;;;23.50;87.50;;;;;;5065999;28;45468;-75
2022/09/10 01:08:41;;;;;;;0.63;0.30;;;23.50;87.60;;;;;;5055389;28;45220;-74
2022/09/10 01:11:20;;;;;;;0.50;0.30;;;23.50;87.50;;;;;;5066945;28;45559;-75
2022/09/10 01:14:02;;;;;;;0.98;0.20;;;23.50;87.90;;;;;;5066285;28;45322;-75
2022/09/10 01:16:36;;;;;;;0.47;0.30;;;23.50;87.50;;;;;;5058656;28;45467;-75
2022/09/10 01:19:15;;;;;;;0.30;0.15;;;23.50;87.50;;;;;;5067097;28;47015;-75
2022/09/10 01:21:59;;;;;;;0.73;0.30;;;23.50;88.10;;;;;;5067366;28;45285;-75
2022/09/10 01:24:46;;;;;;;0.80;0.40;;;23.50;87.80;;;;;;5067381;28;45363;-75
2022/09/10 01:27:34;;;;;;;0.17;0.17;;;23.50;87.70;;;;;;5067382;28;45238;-75
2022/09/10 01:30:11;;;;;;;0.45;0.22;;;23.50;88.00;;;;;;5066547;28;46289;-75
2022/09/10 01:32:56;;;;;;;0.93;0.38;;;23.50;87.70;;;;;;5066768;28;45276;-75
2022/09/10 01:35:29;;;;;;;0.30;0.22;;;23.50;87.60;;;;;;5066902;28;45215;-75
2022/09/10 01:37:59;;;;;;;1.98;0.35;;;23.50;87.70;;;;;;5065358;28;45396;-75
2022/09/10 01:40:28;;;;;;;0.52;0.10;;;23.50;87.30;;;;;;5071861;28;45235;-75
2022/09/10 01:43:01;;;;;;;1.45;0.30;;;23.50;87.50;;;;;;5086997;28;45248;-75
2022/09/10 01:45:29;;;;;;;0.10;0.10;;;23.50;87.90;;;;;;5081953;28;45428;-75
2022/09/10 01:48:47;;;;;;;0.38;0.20;;;23.50;87.20;;;;;;5066753;28;45310;-75
2022/09/10 01:51:22;;;;;;;0.32;0.25;;;23.50;87.10;;;;;;5066306;28;47951;-75
2022/09/10 01:54:10;;;;;;;0.43;0.20;;;23.50;87.50;;;;;;5046626;28;45372;-75
2022/09/10 01:56:46;;;;;;;0.30;0.20;;;23.50;87.50;;;;;;5046463;28;45251;-75
2022/09/10 01:59:24;;;;;;;0.20;0.13;;;23.50;87.50;;;;;;5056301;28;45347;-75
2022/09/10 02:01:58;;;;;;;0.40;0.25;;;23.50;87.50;;;;;;5063551;28;45611;-74
2022/09/10 02:04:27;;;;;;;0.15;0.10;;;23.50;87.10;;;;;;5066238;28;46139;-75
2022/09/10 02:06:56;;;;;;;0.20;0.15;;;23.50;88.60;;;;;;5066394;28;45426;-75
2022/09/10 02:09:23;;;;;;;0.40;0.30;;;23.50;87.60;;;;;;5066396;28;45393;-75
2022/09/10 02:11:52;;;;;;;0.40;0.20;;;23.50;87.40;;;;;;5066069;28;47558;-74
2022/09/10 02:14:21;;;;;;;0.85;0.35;;;23.50;87.60;;;;;;5065463;28;46663;-74
2022/09/10 02:16:53;;;;;;;0.30;0.30;;;23.50;87.30;;;;;;5066307;28;45317;-75
2022/09/10 02:19:20;;;;;;;0.32;0.17;;;23.50;87.00;;;;;;5066614;28;45286;-75
2022/09/10 02:21:47;;;;;;;0.20;0.20;;;23.50;87.10;;;;;;5065798;28;46450;-75
2022/09/10 02:24:14;;;;;;;0.20;0.20;;;23.40;87.50;;;;;;5065690;28;45552;-75
2022/09/10 02:26:44;;;;;;;0.17;0.17;;;23.40;87.00;;;;;;5065708;28;45240;-75
2022/09/10 02:29:14;;;;;;;0.20;0.20;;;23.50;87.20;;;;;;5066151;28;45198;-75
2022/09/10 02:31:42;;;;;;;0.13;0.13;;;23.50;87.20;;;;;;5065518;28;46546;-75
2022/09/10 02:34:10;;;;;;;0.20;0.20;;;23.40;86.90;;;;;;5065514;28;46190;-75
2022/09/10 02:36:38;;;;;;;0.47;0.20;;;23.50;87.20;;;;;;5066128;28;45365;-75
2022/09/10 02:39:06;;;;;;;1.98;0.20;;;23.50;87.20;;;;;;5065993;28;45551;-75
2022/09/10 02:41:34;;;;;;;0.35;0.20;;;23.40;86.70;;;;;;5065675;28;46624;-75
2022/09/10 02:44:02;;;;;;;0.35;0.20;;;23.40;86.60;;;;;;5065642;28;46301;-75
2022/09/10 02:46:29;;;;;;;0.20;0.10;;;23.50;87.10;;;;;;5065900;28;45199;-75
2022/09/10 02:48:57;;;;;;;0.55;0.17;;;23.40;86.60;;;;;;5066064;28;45190;-75
2022/09/10 02:51:26;;;;;;;0.32;0.13;;;23.50;86.80;;;;;;5065482;28;46038;-75
2022/09/10 02:53:54;;;;;;;0.43;0.20;;;23.40;87.30;;;;;;5065967;28;45369;-75
2022/09/10 02:56:21;;;;;;;0.25;0.10;;;23.40;86.70;;;;;;5065814;28;45395;-75
2022/09/10 02:58:48;;;;;;;0.00;0.00;;;23.40;86.50;;;;;;5065759;28;45318;-75
2022/09/10 03:01:18;;;;;;;0.20;0.10;;;23.40;86.40;;;;;;5065207;28;46807;-74
2022/09/10 03:03:50;;;;;;;0.20;0.20;;;23.50;86.70;;;;;;5065470;28;45656;-75
2022/09/10 03:06:20;;;;;;;0.60;0.10;;;23.40;86.50;;;;;;5062550;28;45270;-75
2022/09/10 03:08:49;;;;;;;0.20;0.20;;;23.40;86.40;;;;;;5065732;28;45420;-75
2022/09/10 03:11:16;;;;;;;0.10;0.10;;;23.40;86.40;;;;;;5065445;28;46568;-74
2022/09/10 03:13:44;;;;;;;0.20;0.20;;;23.50;86.50;;;;;;5075416;28;45325;-75
2022/09/10 03:16:12;;;;;;;0.13;0.13;;;23.40;86.40;;;;;;5085620;28;45410;-75
2022/09/10 03:18:39;;;;;;;0.22;0.20;;;23.40;86.40;;;;;;5085610;28;45225;-75
2022/09/10 03:21:11;;;;;;;0.15;0.13;;;23.40;86.40;;;;;;5085573;28;46039;-75
2022/09/10 03:23:40;;;;;;;0.57;0.20;;;23.40;86.30;;;;;;5071683;28;45637;-75
2022/09/10 03:26:09;;;;;;;0.30;0.17;;;23.40;86.30;;;;;;5065532;28;45246;-75
2022/09/10 03:28:36;;;;;;;0.10;0.10;;;23.40;86.60;;;;;;5065342;28;45277;-75
2022/09/10 03:31:03;;;;;;;0.55;0.17;;;23.40;86.60;;;;;;5065089;28;46267;-75
2022/09/10 03:33:30;;;;;;;0.10;0.10;;;23.40;86.40;;;;;;5065103;28;45203;-75
2022/09/10 03:35:56;;;;;;;2.70;0.20;;;23.40;86.60;;;;;;5065307;28;45341;-74
2022/09/10 03:38:24;;;;;;;0.22;0.20;;;23.40;87.30;;;;;;5068281;28;45628;-75
2022/09/10 03:40:52;;;;;;;0.32;0.20;;;23.40;86.40;;;;;;5068610;28;47507;-75
2022/09/10 03:43:31;;;;;;;0.20;0.20;;;23.40;86.30;;;;;;5068374;28;45371;-75
2022/09/10 03:45:58;;;;;;;0.00;0.00;;;23.40;86.10;;;;;;5049082;28;45442;-75
2022/09/10 03:48:25;;;;;;;0.90;0.20;;;23.40;85.90;;;;;;5056359;28;45272;-75
2022/09/10 03:50:52;;;;;;;0.10;0.10;;;23.40;86.00;;;;;;5088680;28;46567;-75
2022/09/10 03:53:19;;;;;;;0.63;0.15;;;23.40;86.10;;;;;;5088499;28;45641;-75
2022/09/10 03:55:47;;;;;;;0.30;0.15;;;23.40;86.10;;;;;;5088821;28;45365;-75
2022/09/10 03:58:16;;;;;;;0.38;0.20;;;23.40;86.10;;;;;;5073522;28;45440;-75
2022/09/10 04:00:44;;;;;;;0.10;0.10;;;23.40;85.90;;;;;;5068203;28;46609;-74
2022/09/10 04:03:11;;;;;;;0.20;0.20;;;23.40;85.90;;;;;;5068167;28;45399;-75
2022/09/10 04:05:42;;;;;;;0.15;0.15;;;23.40;86.10;;;;;;5068306;28;45375;-75
2022/09/10 04:08:09;;;;;;;0.10;0.10;;;23.40;86.10;;;;;;5068457;28;45552;-75
2022/09/10 04:10:36;;;;;;;0.43;0.10;;;23.40;85.80;;;;;;5068317;28;47641;-75
2022/09/10 04:13:03;;;;;;;0.15;0.15;;;23.40;85.80;;;;;;5067707;28;45306;-75
2022/09/10 04:15:31;;;;;;;0.10;0.10;;;23.40;85.90;;;;;;5068542;28;45371;-75
2022/09/10 04:17:59;;;;;;;0.10;0.10;;;23.40;85.70;;;;;;5068111;28;45495;-75
2022/09/10 04:20:26;;;;;;;0.10;0.10;;;23.40;85.80;;;;;;5067534;28;46569;-75
2022/09/10 04:22:55;;;;;;;0.30;0.17;;;23.40;86.10;;;;;;5067864;28;45375;-75
2022/09/10 04:25:22;;;;;;;0.50;0.20;;;23.40;85.70;;;;;;5068147;28;45376;-75
2022/09/10 04:27:50;;;;;;;0.20;0.20;;;23.40;85.80;;;;;;5068109;28;45371;-75
2022/09/10 04:30:18;;;;;;;0.20;0.13;;;23.40;85.90;;;;;;5067721;28;45537;-74
2022/09/10 04:32:46;;;;;;;0.25;0.20;;;23.40;85.70;;;;;;5067449;28;45913;-75
2022/09/10 04:35:38;;;;;;;0.17;0.17;;;23.40;85.70;;;;;;5067751;28;45207;-75
2022/09/10 04:38:05;;;;;;;0.00;0.00;;;23.40;85.70;;;;;;5069936;28;45441;-75
2022/09/10 04:40:32;;;;;;;0.25;0.10;;;23.40;86.00;;;;;;5067598;28;47566;-75
2022/09/10 04:42:59;;;;;;;0.10;0.10;;;23.40;85.80;;;;;;5067495;28;45250;-74
2022/09/10 04:45:26;;;;;;;0.43;0.10;;;23.40;85.90;;;;;;5067793;28;45590;-74
2022/09/10 04:47:54;;;;;;;0.65;0.20;;;23.40;85.60;;;;;;5067423;28;45460;-74
2022/09/10 04:50:21;;;;;;;0.10;0.10;;;23.40;85.50;;;;;;5066943;28;47731;-75
2022/09/10 04:52:48;;;;;;;0.10;0.10;;;23.40;85.70;;;;;;5067304;28;45773;-75
2022/09/10 04:55:15;;;;;;;0.10;0.05;;;23.40;85.40;;;;;;5067430;28;45326;-75
2022/09/10 04:57:42;;;;;;;0.10;0.10;;;23.40;85.60;;;;;;5067024;28;45416;-75
2022/09/10 05:00:11;;;;;;;0.20;0.20;;;23.40;85.80;;;;;;5066478;28;46298;-75
2022/09/10 05:02:38;;;;;;;0.20;0.10;;;23.40;86.50;;;;;;5066687;28;45851;-74
2022/09/10 05:05:07;;;;;;;0.40;0.20;;;23.40;85.60;;;;;;5067321;28;45273;-75
2022/09/10 05:07:34;;;;;;;0.10;0.10;;;23.40;85.70;;;;;;5067211;28;45292;-75
2022/09/10 05:10:01;;;;;;;0.08;0.00;;;23.40;85.70;;;;;;5066980;28;46295;-75
2022/09/10 05:12:27;;;;;;;0.17;0.10;;;23.40;85.80;;;;;;5067199;28;45198;-75
2022/09/10 05:14:54;;;;;;;0.10;0.10;;;23.40;85.60;;;;;;5070595;28;45273;-75
2022/09/10 05:17:21;;;;;;;0.10;0.10;;;23.40;85.70;;;;;;5087509;28;45402;-75
2022/09/10 05:19:48;;;;;;;0.20;0.17;;;23.40;85.70;;;;;;5087101;28;46308;-75
2022/09/10 05:22:16;;;;;;;0.20;0.10;;;23.40;86.00;;;;;;5087332;28;45367;-75
2022/09/10 05:24:42;;;;;;;0.20;0.10;;;23.40;85.70;;;;;;5068081;28;45185;-75
2022/09/10 05:27:09;;;;;;;0.28;0.20;;;23.40;85.90;;;;;;5067287;28;45175;-75
2022/09/10 05:29:48;;;;;;;2.08;0.38;;;23.40;85.70;;;;;;5067063;28;45544;-73
2022/09/10 05:32:15;;;;;;;0.20;0.20;;;23.40;86.00;;;;;;5067057;28;45263;-74
2022/09/10 05:34:41;;;;;;;1.40;0.20;;;23.40;85.80;;;;;;5066954;28;45354;-75
2022/09/10 05:37:10;;;;;;;0.20;0.10;;;23.40;85.70;;;;;;5066800;28;45218;-75
2022/09/10 05:39:38;;;;;;;0.10;0.10;;;23.40;85.70;;;;;;5066608;28;48370;-75
2022/09/10 05:42:06;;;;;;;0.20;0.10;;;23.40;85.70;;;;;;5066709;28;45536;-75
2022/09/10 05:44:32;;;;;;;0.32;0.20;;;23.40;86.00;;;;;;5066706;28;45188;-74
2022/09/10 05:47:00;;;;;;;0.32;0.10;;;23.40;85.70;;;;;;5067021;28;45599;-75
2022/09/10 05:49:26;;;;;;;0.10;0.10;;;23.40;85.90;;;;;;5066539;28;46201;-75
2022/09/10 05:51:53;;;;;;;0.22;0.10;;;23.40;85.70;;;;;;5066317;28;45276;-75
2022/09/10 05:54:20;;;;;;;0.30;0.20;;;23.40;85.80;;;;;;5066621;28;45488;-74
2022/09/10 05:56:49;;;;;;;0.20;0.10;;;23.40;85.70;;;;;;5066998;28;45211;-75
2022/09/10 05:59:21;;;;;;;0.15;0.10;;;23.40;85.70;;;;;;5065345;28;47183;-75
2022/09/10 06:01:50;;;;;;;0.10;0.10;;;23.40;85.90;;;;;;5061260;28;45342;-75
2022/09/10 06:04:17;;;;;;;0.20;0.10;;;23.40;86.10;;;;;;5066577;28;45452;-75
2022/09/10 06:06:44;;;;;;;0.65;0.20;;;23.40;86.00;;;;;;5066483;28;45236;-75
2022/09/10 06:09:11;;;;;;;0.20;0.10;;;23.40;85.90;;;;;;5066389;28;46350;-75
2022/09/10 06:11:38;;;;;;;0.28;0.10;;;23.40;85.90;;;;;;5066166;28;45261;-75
2022/09/10 06:14:07;;;;;;;0.38;0.20;;;23.40;86.20;;;;;;5072909;28;45450;-75
2022/09/10 06:17:00;;;;;;;0.22;0.13;;;23.40;86.10;;;;;;5086913;28;45305;-75
2022/09/10 06:19:27;;;;;;;0.20;0.10;;;23.40;86.10;;;;;;5086459;28;46601;-75
2022/09/10 06:21:53;;;;;;;0.22;0.22;;;23.40;86.30;;;;;;5089336;28;45150;-74
2022/09/10 06:24:21;;;;;;;1.23;0.20;;;23.40;86.70;;;;;;5086934;28;45431;-75
2022/09/10 06:26:52;;;;;;;0.32;0.20;;;23.40;86.60;;;;;;5086533;28;45567;-75
2022/09/10 06:29:21;;;;;;;0.20;0.10;;;23.40;86.90;;;;;;5086300;28;45482;-75
2022/09/10 06:31:48;;;;;;;0.40;0.20;;;23.40;86.80;;;;;;5086682;28;45158;-75
2022/09/10 06:34:17;;;;;;;0.20;0.10;;;23.40;87.50;;;;;;5086271;28;45219;-75
2022/09/10 06:36:46;;;;;;;0.60;0.20;;;23.40;86.70;;;;;;5086587;28;45594;-75
2022/09/10 06:39:28;;;;;;;0.50;0.13;;;23.40;87.50;;;;;;5084706;28;45185;-75
2022/09/10 06:41:55;;;;;;;1.63;0.25;;;23.40;86.80;;;;;;5065793;28;45233;-75
2022/09/10 06:44:23;;;;;;;0.88;0.20;;;23.40;87.20;;;;;;5066083;28;45213;-75
2022/09/10 06:46:50;;;;;;;1.05;0.20;;;23.40;87.70;;;;;;5065936;28;45678;-75
2022/09/10 06:49:17;;;;;;;0.40;0.20;;;23.40;87.40;;;;;;5065492;28;45246;-75
2022/09/10 06:51:44;;;;;;;0.35;0.10;;;23.40;87.20;;;;;;5065787;28;45314;-75
2022/09/10 06:54:11;;;;;;;0.20;0.10;;;23.40;87.40;;;;;;5065786;28;45420;-75
2022/09/10 06:56:40;;;;;;;0.43;0.10;;;23.40;87.30;;;;;;5065558;28;45443;-73
2022/09/10 06:59:12;;;;;;;0.20;0.20;;;23.40;87.40;;;;;;5065318;28;46376;-75
2022/09/10 07:01:40;;;;;;;0.75;0.10;;;23.40;86.90;;;;;;5065741;28;45269;-74
2022/09/10 07:04:07;;;;;;;0.57;0.22;;;23.40;87.30;;;;;;5065564;28;45456;-75
2022/09/10 07:06:35;;;;;;;0.40;0.20;;;23.40;87.30;;;;;;5084334;28;45328;-75
2022/09/10 07:09:03;;;;;;;0.20;0.20;;;23.40;87.20;;;;;;5081898;28;47327;-75
2022/09/10 07:11:31;;;;;;;0.35;0.10;;;23.40;87.10;;;;;;5065153;28;45194;-75
2022/09/10 07:13:58;;;;;;;0.57;0.10;;;23.40;87.20;;;;;;5064562;28;45325;-74
2022/09/10 07:16:27;;;;;;;0.17;0.10;;;23.40;87.10;;;;;;5063472;28;45339;-75
2022/09/10 07:18:57;;;;;;;0.40;0.28;;;23.40;87.40;;;;;;5063729;28;46528;-75
2022/09/10 07:21:26;;;;;;;0.20;0.20;;;23.40;87.50;;;;;;5063674;28;45205;-75
2022/09/10 07:23:55;;;;;;;1.13;0.20;;;23.40;87.40;;;;;;5064340;28;45230;-75
2022/09/10 07:26:22;;;;;;;0.05;0.05;;;23.40;87.40;;;;;;5063905;28;45496;-75
2022/09/10 07:28:49;;;;;;;0.20;0.20;;;23.40;87.40;;;;;;5063755;28;47663;-75
2022/09/10 07:31:17;;;;;;;0.10;0.10;;;23.40;87.60;;;;;;5063629;28;45236;-75
2022/09/10 07:33:45;;;;;;;0.50;0.10;;;23.40;87.50;;;;;;5063547;28;45229;-75
2022/09/10 07:36:14;;;;;;;0.73;0.10;;;23.40;87.80;;;;;;5063837;28;45548;-75
2022/09/10 07:38:42;;;;;;;0.40;0.20;;;23.40;87.40;;;;;;5063697;28;48816;-75
2022/09/10 07:41:28;;;;;;;0.40;0.20;;;23.40;87.40;;;;;;5063548;28;45333;-75
2022/09/10 07:43:55;;;;;;;0.10;0.10;;;23.40;87.90;;;;;;5064064;28;45269;-75
2022/09/10 07:46:24;;;;;;;0.10;0.10;;;23.40;87.60;;;;;;5063963;28;45412;-75
2022/09/10 07:48:53;;;;;;;0.00;0.00;;;23.30;88.20;;;;;;5063667;28;47978;-75
2022/09/10 07:51:22;;;;;;;0.68;0.10;;;23.40;87.80;;;;;;5063554;28;45766;-75
2022/09/10 07:53:54;;;;;;;0.30;0.17;;;23.40;87.90;;;;;;5063773;28;45369;-75
2022/09/10 07:56:21;;;;;;;0.35;0.22;;;23.40;87.50;;;;;;5063936;28;45594;-75
2022/09/10 07:58:49;;;;;;;1.65;0.20;;;23.40;87.50;;;;;;5063119;28;48482;-75
2022/09/10 08:01:15;;;;;;;1.45;0.10;;;23.40;87.70;;;;;;5063239;28;45341;-75
2022/09/10 08:03:42;;;;;;;0.75;0.40;;;23.40;87.60;;;;;;5063869;28;45189;-75
2022/09/10 08:06:19;;;;;;;0.10;0.10;;;23.40;87.70;;;;;;5063866;28;45260;-73
2022/09/10 08:08:47;;;;;;;0.82;0.30;;;23.40;88.00;;;;;;5063587;28;47723;-75
2022/09/10 08:11:16;;;;;;;0.10;0.10;;;23.40;88.20;;;;;;5063139;28;45375;-74
2022/09/10 08:13:44;;;;;;;0.35;0.20;;;23.40;87.70;;;;;;5043045;28;1097663;-75
2022/09/10 08:16:14;;;;;;;1.17;0.30;;;23.40;88.20;;;;;;5084978;28;45598;-74
2022/09/10 08:18:42;;;;;;;0.93;0.20;;;23.40;87.80;;;;;;5079492;28;46287;-75
2022/09/10 08:21:09;;;;;;;0.45;0.20;;;23.40;87.80;;;;;;5064167;28;46316;-74
2022/09/10 08:23:38;;;;;;;0.20;0.20;;;23.40;87.80;;;;;;5065904;28;45238;-74
2022/09/10 08:26:07;;;;;;;0.40;0.20;;;23.40;88.00;;;;;;5067619;28;45395;-74
2022/09/10 08:28:36;;;;;;;0.47;0.20;;;23.40;87.90;;;;;;5067364;28;48309;-74
2022/09/10 08:31:06;;;;;;;0.60;0.20;;;23.40;88.00;;;;;;5072429;28;45305;-74
2022/09/10 08:33:33;;;;;;;0.15;0.15;;;23.40;88.00;;;;;;5067785;28;45071;-75
2022/09/10 08:36:01;;;;;;;0.45;0.20;;;23.40;88.00;;;;;;5067096;28;45312;-74
2022/09/10 08:38:31;;;;;;;0.47;0.22;;;23.40;87.90;;;;;;5067401;28;46593;-75
2022/09/10 08:40:59;;;;;;;0.08;0.08;;;23.40;87.90;;;;;;5057299;28;45387;-75
2022/09/10 08:43:33;;;;;;;0.30;0.20;;;23.40;88.20;;;;;;5066027;28;45301;-75
2022/09/10 08:46:04;;;;;;;0.20;0.20;;;23.40;88.00;;;;;;5067536;28;45404;-74
2022/09/10 08:48:35;;;;;;;0.22;0.20;;;23.40;88.20;;;;;;5063638;28;47483;-74
2022/09/10 08:51:11;;;;;;;0.43;0.20;;;23.40;88.20;;;;;;5067139;28;45269;-75
2022/09/10 08:53:46;;;;;;;0.35;0.10;;;23.40;88.20;;;;;;5067618;28;45515;-74
2022/09/10 08:56:15;;;;;;;0.30;0.20;;;23.40;89.00;;;;;;5067256;28;45212;-74
2022/09/10 08:58:49;;;;;;;0.10;0.10;;;23.40;88.10;;;;;;5068014;28;46405;-74
2022/09/10 09:01:29;;;;;;;0.28;0.25;;;23.40;88.00;;;;;;5067222;28;45427;-74
2022/09/10 09:03:57;;;;;;;0.10;0.10;;;23.50;88.00;;;;;;5067078;28;45297;-74
2022/09/10 09:06:32;;;;;;;0.30;0.30;;;23.40;88.00;;;;;;5066827;28;45269;-75
2022/09/10 09:09:00;;;;;;;0.93;0.22;;;23.50;88.20;;;;;;5066825;28;45712;-74
2022/09/10 09:11:36;;;;;;;0.22;0.20;;;23.50;88.10;;;;;;5070055;28;45288;-74
2022/09/10 09:14:29;;;;;;;0.55;0.30;;;23.40;88.20;;;;;;5066786;28;45268;-75
2022/09/10 09:17:17;;;;;;;0.70;0.20;;;23.40;88.20;;;;;;5065266;28;45266;-74
2022/09/10 09:19:49;;;;;;;3.10;0.40;;;23.50;88.10;;;;;;5065875;28;46310;-74
2022/09/10 09:22:19;;;;;;;0.43;0.20;;;23.50;88.00;;;;;;5071226;28;45554;-75
2022/09/10 09:24:53;;;;;;;0.30;0.30;;;23.50;87.80;;;;;;5065947;28;45361;-74
2022/09/10 09:27:20;;;;;;;0.10;0.10;;;23.50;87.90;;;;;;5066200;28;45376;-75
2022/09/10 09:29:54;;;;;;;0.40;0.20;;;23.50;88.00;;;;;;5065931;28;46679;-75
2022/09/10 09:32:23;;;;;;;0.20;0.20;;;23.50;88.30;;;;;;5066382;28;45413;-75
2022/09/10 09:34:53;;;;;;;2.70;0.20;;;23.50;88.20;;;;;;5065734;28;45323;-75
2022/09/10 09:37:24;;;;;;;0.13;0.13;;;23.50;88.30;;;;;;5067095;28;45240;-75
2022/09/10 09:40:04;;;;;;;0.20;0.20;;;23.40;88.30;;;;;;5066269;28;46429;-75
2022/09/10 09:42:39;;;;;;;0.43;0.10;;;23.50;88.50;;;;;;5066701;28;45224;-75
2022/09/10 09:45:18;;;;;;;1.17;0.20;;;23.40;88.70;;;;;;5066534;28;45263;-75
2022/09/10 09:47:45;;;;;;;0.10;0.10;;;23.40;88.60;;;;;;5066810;28;45449;-75
2022/09/10 09:50:13;;;;;;;0.80;0.38;;;23.40;88.50;;;;;;5066355;28;46904;-75
2022/09/10 09:52:42;;;;;;;1.45;0.50;;;23.40;89.50;;;;;;5066995;28;45434;-75
2022/09/10 09:55:21;;;;;;;0.30;0.20;;;23.50;88.80;;;;;;5073132;28;45396;-75
2022/09/10 09:57:47;;;;;;;0.10;0.10;;;23.50;88.50;;;;;;5086812;28;45431;-75
2022/09/10 10:00:35;;;;;;;0.20;0.20;;;23.50;88.70;;;;;;5086390;28;47337;-75
2022/09/10 10:03:12;;;;;;;0.20;0.20;;;23.50;88.70;;;;;;5086582;28;45260;-75
2022/09/10 10:05:41;;;;;;;0.52;0.20;;;23.50;88.70;;;;;;5086925;28;45261;-75
2022/09/10 10:08:28;;;;;;;0.20;0.20;;;23.50;88.70;;;;;;5073110;28;45198;-75
2022/09/10 10:10:56;;;;;;;0.50;0.30;;;23.50;88.90;;;;;;5066363;28;47307;-75
2022/09/10 10:13:24;;;;;;;0.50;0.30;;;23.50;88.70;;;;;;5065605;28;46174;-75
2022/09/10 10:15:52;;;;;;;1.23;0.20;;;23.50;88.80;;;;;;5066467;28;45286;-75
2022/09/10 10:18:31;;;;;;;0.40;0.30;;;23.50;88.70;;;;;;5066258;28;45140;-75
2022/09/10 10:21:15;;;;;;;0.30;0.30;;;23.50;88.80;;;;;;5065992;28;45332;-75
2022/09/10 10:23:42;;;;;;;0.30;0.30;;;23.50;88.90;;;;;;5063962;28;45870;-75
2022/09/10 10:26:29;;;;;;;0.40;0.35;;;23.50;89.10;;;;;;5066031;28;45282;-75
2022/09/10 10:29:00;;;;;;;0.60;0.40;;;23.50;89.10;;;;;;5065938;28;45686;-75
2022/09/10 10:31:38;;;;;;;0.63;0.20;;;23.50;88.90;;;;;;5065973;28;47304;-75
2022/09/10 10:34:29;;;;;;;0.30;0.30;;;23.50;88.90;;;;;;5065714;28;45447;-75
2022/09/10 10:37:05;;;;;;;0.38;0.25;;;23.40;88.90;;;;;;5065820;28;45355;-75
2022/09/10 10:39:45;;;;;;;0.52;0.40;;;23.40;88.80;;;;;;5066455;28;45068;-75
2022/09/10 10:42:19;;;;;;;1.83;0.32;;;23.40;88.90;;;;;;5065616;28;48042;-75
2022/09/10 10:45:01;;;;;;;0.20;0.20;;;23.40;88.90;;;;;;5066280;28;45304;-75
2022/09/10 10:47:44;;;;;;;0.30;0.20;;;23.40;89.00;;;;;;5065048;28;45368;-75
2022/09/10 10:50:21;;;;;;;0.22;0.22;;;23.50;89.10;;;;;;5066294;28;45404;-75
2022/09/10 10:53:00;;;;;;;0.30;0.20;;;23.40;88.90;;;;;;5065469;28;47955;-75
2022/09/10 10:55:35;;;;;;;0.60;0.35;;;23.40;88.80;;;;;;5065412;28;45232;-75
2022/09/10 10:58:19;;;;;;;1.00;0.47;;;23.40;89.00;;;;;;5065720;28;45354;-75
2022/09/10 11:00:48;;;;;;;0.10;0.10;;;23.40;89.00;;;;;;5065806;28;45543;-75
2022/09/10 11:03:22;;;;;;;0.30;0.30;;;23.40;88.90;;;;;;5065386;28;45504;-75
2022/09/10 11:05:52;;;;;;;2.45;0.40;;;23.40;89.00;;;;;;5065354;28;45235;-75
2022/09/10 11:08:27;;;;;;;0.22;0.20;;;23.40;89.00;;;;;;5065315;28;45387;-75
2022/09/10 11:10:59;;;;;;;0.28;0.22;;;23.40;88.90;;;;;;5065268;28;45548;-75
2022/09/10 11:13:35;;;;;;;0.57;0.20;;;23.40;88.90;;;;;;5064920;28;45441;-75
2022/09/10 11:16:04;;;;;;;1.52;0.38;;;23.40;88.90;;;;;;5065001;28;45424;-75
2022/09/10 11:18:38;;;;;;;0.28;0.20;;;23.40;88.90;;;;;;5064905;28;45278;-75
2022/09/10 11:21:14;;;;;;;0.28;0.25;;;23.40;88.90;;;;;;5065353;28;45313;-75
2022/09/10 11:23:46;;;;;;;0.45;0.32;;;23.40;88.80;;;;;;5064942;28;45224;-74
2022/09/10 11:26:18;;;;;;;0.30;0.30;;;23.40;88.80;;;;;;5064687;28;45297;-75
2022/09/10 11:28:53;;;;;;;0.30;0.30;;;23.40;88.90;;;;;;5064966;28;45190;-75
2022/09/10 11:31:34;;;;;;;0.57;0.30;;;23.40;88.80;;;;;;5064943;28;45746;-75
2022/09/10 11:34:05;;;;;;;0.25;0.20;;;23.40;88.80;;;;;;5064690;28;48095;-75
2022/09/10 11:36:38;;;;;;;0.20;0.20;;;23.40;88.90;;;;;;5066888;28;45744;-74
2022/09/10 11:39:15;;;;;;;0.52;0.30;;;23.40;88.70;;;;;;5062233;28;45278;-75
2022/09/10 11:41:45;;;;;;;0.32;0.32;;;23.40;88.80;;;;;;5065243;28;45192;-74
2022/09/10 11:44:30;;;;;;;0.22;0.20;;;23.30;88.70;;;;;;5064530;28;48970;-74
2022/09/10 11:47:04;;;;;;;0.73;0.32;;;23.40;88.90;;;;;;5064549;28;46952;-75
2022/09/10 11:49:39;;;;;;;0.20;0.20;;;23.40;88.80;;;;;;5064596;28;45297;-75
2022/09/10 11:52:07;;;;;;;0.30;0.30;;;23.40;88.80;;;;;;5061931;28;45341;-75
2022/09/10 11:54:37;;;;;;;0.40;0.30;;;23.40;88.80;;;;;;5064577;28;45300;-75
2022/09/10 11:57:10;;;;;;;0.60;0.45;;;23.40;88.70;;;;;;5064286;28;45887;-75
2022/09/10 12:00:03;;;;;;;0.45;0.38;;;23.40;88.70;;;;;;5067946;28;45371;-74
2022/09/10 12:03:08;;;;;;;0.45;0.38;;;23.40;88.70;;;;;;5068308;28;45483;-75
2022/09/10 12:05:53;;;;;;;0.47;0.45;;;23.40;88.70;;;;;;5067658;28;47974;-74
2022/09/10 12:08:32;;;;;;;0.30;0.30;;;23.40;88.70;;;;;;5067879;28;45418;-75
2022/09/10 12:11:13;;;;;;;0.38;0.30;;;23.40;88.80;;;;;;5067593;28;45353;-75
2022/09/10 12:13:43;;;;;;;0.60;0.40;;;23.40;88.80;;;;;;5067305;28;45260;-76
2022/09/10 12:16:21;;;;;;;0.40;0.40;;;23.40;88.80;;;;;;5067679;28;46603;-75
2022/09/10 12:18:51;;;;;;;0.28;0.28;;;23.40;88.80;;;;;;5067641;28;45922;-75
2022/09/10 12:21:32;;;;;;;0.73;0.43;;;23.40;88.80;;;;;;5067652;28;45282;-75
2022/09/10 12:24:00;;;;;;;0.80;0.40;;;23.40;88.80;;;;;;5067803;28;45411;-75
2022/09/10 12:26:27;;;;;;;0.60;0.50;;;23.40;88.80;;;;;;5067462;28;48001;-75
2022/09/10 12:29:05;;;;;;;1.02;0.40;;;23.40;88.90;;;;;;5067718;28;45358;-74
2022/09/10 12:32:07;;;;;;;0.30;0.30;;;23.40;88.90;;;;;;5067425;28;45502;-75
2022/09/10 12:34:34;;;;;;;0.20;0.20;;;23.40;88.90;;;;;;5066604;28;45313;-75
2022/09/10 12:37:28;;;;;;;2.28;0.40;;;23.40;88.90;;;;;;5067596;28;46984;-75
2022/09/10 12:40:32;;;;;;;0.25;0.25;;;23.40;88.90;;;;;;5067859;28;45374;-75
2022/09/10 12:43:38;;;;;;;0.40;0.38;;;23.40;88.90;;;;;;5067343;28;45252;-75
2022/09/10 12:46:17;;;;;;;1.13;0.30;;;23.40;88.90;;;;;;5082030;28;45280;-75
2022/09/10 12:48:46;;;;;;;0.68;0.40;;;23.40;89.00;;;;;;5087489;28;46453;-74
2022/09/10 12:51:30;;;;;;;0.30;0.22;;;23.40;88.90;;;;;;5087514;28;45234;-75
2022/09/10 12:54:19;;;;;;;0.30;0.30;;;23.40;88.90;;;;;;5084902;28;45321;-74
2022/09/10 12:57:07;;;;;;;0.45;0.45;;;23.40;88.90;;;;;;5087717;28;45330;-75
2022/09/10 12:59:57;;;;;;;0.65;0.50;;;23.40;88.90;;;;;;5087701;28;45284;-75
2022/09/10 13:02:30;;;;;;;0.85;0.43;;;23.40;88.90;;;;;;5078231;28;45312;-75
2022/09/10 13:05:00;;;;;;;0.55;0.40;;;23.40;88.90;;;;;;5067465;28;45450;-75
2022/09/10 13:07:35;;;;;;;0.80;0.45;;;23.40;88.90;;;;;;5067177;28;45423;-75
2022/09/10 13:10:07;;;;;;;0.50;0.43;;;23.40;88.90;;;;;;5066433;28;46677;-75
2022/09/10 13:12:36;;;;;;;0.40;0.40;;;23.40;88.90;;;;;;5066707;28;46381;-75